Etusivu
METAR-TAF:

METAR-TAF

Lentoasemat :

Gulfport, Mississippi, Yhdysvallat

Leveyspiiri: 30-24-43N, Pituuspiiri: 089-04-51W, korkeus merenpinnasta: 8 m

Tämänhetkinen sää

Tämä raportti tehtiin 33 minuuttia sitten, kello 15.53 UTC
Tuuli 6 kn pohjoisesta
Lämpötila 16°C
Kosteus 39%
Ilmanpaine 1015 hPa
Näkyvyys: 16.1 km
selkeää

METAR: KGPT 181553Z 36006KT 10SM CLR 16/02 A2997 RMK AO2 SLP147 T01560022

Aika: 10:26 (16:26 UTC)

Sääennuste

Tämä raportti tehtiin 4 tuntia ja 59 minuuttia sitten, kello 11.27 UTC
Ennuste voimassa 18. päivästä klo 12 UTC - 19. päivään klo 12 UTC
Tuuli 4 kn eri suunnista
Näkyvyys: 10 km
selkeää
From 18. päivästä klo 1800 UTC
Tuuli 6 kn luoteesta
Näkyvyys: 10 km
selkeää
From 18. päivästä klo 2000 UTC
Tuuli 6 kn lännestä
Näkyvyys: 10 km
selkeää
From 19. päivästä klo 0900 UTC
Tuuli 3 kn eri suunnista
Näkyvyys: 10 km
selkeää

TAF: KGPT 181127Z 1812/1912 VRB04KT P6SM SKC FM181800 31006KT P6SM SKC FM182000 28006KT P6SM SKC FM190900 VRB03KT P6SM SKC

Säähavainnot ja -ennusteet yli 4000 lentoasemalta (METAR- ja TAF-raportit).

Käytössä olevat sääasemat on merkitty karttaan keltaisilla ja punaisilla pisteillä.

Aseta hiiri pisteen päälle nähdäksesi sääaseman nimen.

Klikkaa sitten nähdäksesi säähavainnot ja -ennusteet.

Kartan vaihtaminen: klikkaa mustalla rastilla varustettuja vihreitä pisteitä, niin voit zoomata sisään; viivalla varustettua vihreää pistettä, niin voit zoomata ulos tai vihreitä nuolia, niin pääset viereisille kartoille.


METAR-TAF: